createdAt,value
2023-01-23T00:01:19.857Z,67.50
2023-01-23T00:03:47.282Z,67.60
2023-01-23T00:06:16.167Z,67.50
2023-01-23T00:08:44.981Z,67.50
2023-01-23T00:11:21.620Z,67.50
2023-01-23T00:13:49.575Z,67.50
2023-01-23T00:16:22.302Z,67.40
2023-01-23T00:18:50.123Z,67.50
2023-01-23T00:21:20.674Z,67.40
2023-01-23T00:23:56.192Z,67.50
2023-01-23T00:26:26.101Z,67.50
2023-01-23T00:28:54.464Z,67.60
2023-01-23T00:31:27.877Z,67.50
2023-01-23T00:33:58.317Z,67.70
2023-01-23T00:36:29.159Z,67.70
2023-01-23T00:38:56.471Z,67.70
2023-01-23T00:41:23.886Z,67.60
2023-01-23T00:43:52.337Z,67.70
2023-01-23T00:46:21.262Z,67.60
2023-01-23T00:48:48.414Z,67.60
2023-01-23T00:51:15.553Z,67.60
2023-01-23T00:53:43.145Z,67.60
2023-01-23T00:56:10.291Z,67.60
2023-01-23T00:58:37.275Z,67.70
2023-01-23T01:01:04.477Z,67.70
2023-01-23T01:03:31.404Z,67.70
2023-01-23T01:05:58.577Z,67.80
2023-01-23T01:08:25.503Z,67.70
2023-01-23T01:10:52.652Z,67.80
2023-01-23T01:13:21.545Z,67.80
2023-01-23T01:15:50.364Z,67.70
2023-01-23T01:18:17.835Z,67.90
2023-01-23T01:20:45.295Z,67.90
2023-01-23T01:23:12.655Z,67.90
2023-01-23T01:25:39.655Z,67.90
2023-01-23T01:28:07.319Z,67.90
2023-01-23T01:30:36.784Z,68.10
2023-01-23T01:33:04.220Z,68.10
2023-01-23T01:35:31.502Z,68.20
2023-01-23T01:37:58.494Z,68.20
2023-01-23T01:40:31.694Z,68.10
2023-01-23T01:43:23.277Z,68.20
2023-01-23T01:46:20.201Z,68.20
2023-01-23T01:49:10.722Z,68.30
2023-01-23T01:51:46.505Z,68.30
2023-01-23T01:54:47.098Z,68.30
2023-01-23T01:57:16.766Z,68.40
2023-01-23T02:00:04.434Z,68.30
2023-01-23T02:02:46.571Z,68.40
2023-01-23T02:05:18.517Z,68.50
2023-01-23T02:08:05.532Z,68.50
2023-01-23T02:10:34.752Z,68.60
2023-01-23T02:13:32.468Z,68.60
2023-01-23T02:16:01.565Z,68.70
2023-01-23T02:18:31.442Z,68.70
2023-01-23T02:21:01.791Z,68.70
2023-01-23T02:23:56.425Z,69.40
2023-01-23T02:26:32.894Z,68.70
2023-01-23T02:29:00.176Z,68.70
2023-01-23T02:31:27.465Z,68.70
2023-01-23T02:33:57.232Z,68.70
2023-01-23T02:36:34.189Z,68.80
2023-01-23T02:39:13.297Z,69.00
2023-01-23T02:41:42.963Z,69.00
2023-01-23T02:44:18.655Z,68.90
2023-01-23T02:46:46.038Z,69.00
2023-01-23T02:49:13.483Z,68.80
2023-01-23T02:51:40.529Z,68.80
2023-01-23T02:54:07.488Z,68.90
2023-01-23T02:56:34.535Z,68.80
2023-01-23T02:59:20.111Z,68.90
2023-01-23T03:01:49.402Z,69.00
2023-01-23T03:04:16.482Z,68.90
2023-01-23T03:06:43.469Z,68.80
2023-01-23T03:09:13.289Z,68.70
2023-01-23T03:11:43.294Z,68.90
2023-01-23T03:14:17.748Z,69.00
2023-01-23T03:16:50.380Z,69.00
2023-01-23T03:19:19.040Z,69.00
2023-01-23T03:21:46.884Z,69.00
2023-01-23T03:24:14.475Z,68.90
2023-01-23T03:26:45.915Z,68.90
2023-01-23T03:29:43.406Z,69.00
2023-01-23T03:32:17.700Z,69.20
2023-01-23T03:34:44.914Z,69.20
2023-01-23T03:37:12.852Z,69.20
2023-01-23T03:40:00.217Z,69.30
2023-01-23T03:42:27.130Z,69.30
2023-01-23T03:44:54.116Z,69.20
2023-01-23T03:47:21.130Z,69.30
2023-01-23T03:49:50.459Z,69.30
2023-01-23T03:52:17.518Z,69.40
2023-01-23T03:54:44.471Z,69.50
2023-01-23T03:57:11.715Z,69.40
2023-01-23T03:59:38.656Z,69.50
2023-01-23T04:02:05.634Z,69.50
2023-01-23T04:04:34.005Z,69.50
2023-01-23T04:07:01.432Z,69.80
2023-01-23T04:09:28.405Z,69.70
2023-01-23T04:11:56.308Z,69.70
2023-01-23T04:14:25.083Z,69.90
2023-01-23T04:16:53.949Z,69.90
2023-01-23T04:19:21.018Z,69.90
2023-01-23T04:21:49.100Z,69.90
2023-01-23T04:24:17.072Z,70.00
2023-01-23T04:26:44.055Z,70.00
2023-01-23T04:29:11.490Z,69.90
2023-01-23T04:31:38.671Z,70.00
2023-01-23T04:34:05.745Z,69.90
2023-01-23T04:36:32.976Z,70.00
2023-01-23T04:38:59.893Z,70.10
2023-01-23T04:41:29.173Z,70.10
2023-01-23T04:43:56.205Z,70.10
2023-01-23T04:46:23.382Z,70.00
2023-01-23T04:48:50.305Z,70.10
2023-01-23T04:51:17.339Z,70.10
2023-01-23T04:53:44.370Z,70.00
2023-01-23T04:56:11.360Z,70.00
2023-01-23T04:58:38.325Z,69.90
2023-01-23T05:01:07.407Z,70.00
2023-01-23T05:03:35.331Z,70.10
2023-01-23T05:06:02.374Z,70.00
2023-01-23T05:08:29.307Z,69.90
2023-01-23T05:10:56.250Z,70.00
2023-01-23T05:13:23.349Z,70.00
2023-01-23T05:15:50.429Z,70.10
2023-01-23T05:18:17.463Z,70.10
2023-01-23T05:20:44.505Z,70.10
2023-01-23T05:23:11.583Z,70.10
2023-01-23T05:25:38.546Z,70.20
2023-01-23T05:28:05.484Z,70.20
2023-01-23T05:30:32.654Z,70.20
2023-01-23T05:32:59.812Z,70.30
2023-01-23T05:35:26.801Z,70.30
2023-01-23T05:37:54.431Z,70.40
2023-01-23T05:40:22.264Z,70.60
2023-01-23T05:42:49.643Z,70.50
2023-01-23T05:45:17.539Z,70.70
2023-01-23T05:47:44.746Z,70.70
2023-01-23T05:50:18.078Z,70.60
2023-01-23T05:52:45.897Z,70.60
2023-01-23T05:55:13.242Z,70.60
2023-01-23T05:57:40.287Z,71.00
2023-01-23T06:00:09.314Z,70.50
2023-01-23T06:02:36.310Z,70.60
2023-01-23T06:05:03.311Z,70.50
2023-01-23T06:07:30.514Z,70.50
2023-01-23T06:09:57.479Z,70.50
2023-01-23T06:12:24.445Z,70.60
2023-01-23T06:14:51.412Z,70.50
2023-01-23T06:17:18.516Z,70.50
2023-01-23T06:19:45.533Z,70.50
2023-01-23T06:22:12.525Z,70.40
2023-01-23T06:24:39.585Z,70.40
2023-01-23T06:27:09.569Z,70.30
2023-01-23T06:29:37.011Z,70.50
2023-01-23T06:32:05.102Z,70.50
2023-01-23T06:34:32.081Z,70.60
2023-01-23T06:36:59.075Z,70.40
2023-01-23T06:39:27.052Z,70.50
2023-01-23T06:41:53.982Z,70.50
2023-01-23T06:44:20.929Z,70.50
2023-01-23T06:46:47.956Z,70.40
2023-01-23T06:49:15.265Z,70.40
2023-01-23T06:51:42.364Z,70.40
2023-01-23T06:54:09.394Z,70.40
2023-01-23T06:56:36.487Z,70.40
2023-01-23T06:59:03.566Z,70.30
2023-01-23T07:01:30.539Z,70.40
2023-01-23T07:03:57.538Z,70.40
2023-01-23T07:06:24.886Z,70.40
2023-01-23T07:08:51.859Z,70.50
2023-01-23T07:11:19.651Z,70.50
2023-01-23T07:13:46.685Z,70.50
2023-01-23T07:16:13.792Z,70.50
2023-01-23T07:18:40.767Z,70.50
2023-01-23T07:21:08.198Z,70.50
2023-01-23T07:23:35.548Z,70.60
2023-01-23T07:26:04.488Z,70.60
2023-01-23T07:28:31.609Z,70.80
2023-01-23T07:30:59.814Z,70.70
2023-01-23T07:33:27.025Z,70.90
2023-01-23T07:35:54.494Z,70.90
2023-01-23T07:38:23.432Z,70.90
2023-01-23T07:40:51.018Z,70.70
2023-01-23T07:43:18.233Z,70.70
2023-01-23T07:45:45.314Z,70.70
2023-01-23T07:48:12.343Z,70.60
2023-01-23T07:50:39.437Z,70.70
2023-01-23T07:53:06.810Z,70.70
2023-01-23T07:55:34.169Z,70.60
2023-01-23T07:58:01.431Z,70.70
2023-01-23T08:00:30.216Z,70.60
2023-01-23T08:02:57.915Z,70.60
2023-01-23T08:05:25.344Z,70.60
2023-01-23T08:08:07.356Z,70.60
2023-01-23T08:10:39.444Z,70.60
2023-01-23T08:13:06.458Z,70.50
2023-01-23T08:15:33.679Z,70.60
2023-01-23T08:18:00.704Z,71.50
2023-01-23T08:20:27.825Z,70.60
2023-01-23T08:22:55.891Z,70.70
2023-01-23T08:25:22.971Z,70.80
2023-01-23T08:27:49.999Z,70.90
2023-01-23T08:30:17.544Z,70.90
2023-01-23T08:32:45.075Z,70.80
2023-01-23T08:35:12.038Z,70.80
2023-01-23T08:37:41.221Z,70.70
2023-01-23T08:40:08.774Z,70.80
2023-01-23T08:42:35.813Z,70.70
2023-01-23T08:45:02.813Z,70.60
2023-01-23T08:47:30.664Z,70.60
2023-01-23T08:49:57.655Z,70.70
2023-01-23T08:52:24.646Z,70.60
2023-01-23T08:54:51.641Z,70.60
2023-01-23T08:57:18.579Z,70.60
2023-01-23T08:59:45.746Z,70.60
2023-01-23T09:02:13.109Z,70.70
2023-01-23T09:04:40.223Z,70.70
2023-01-23T09:07:07.193Z,70.60
2023-01-23T09:09:34.356Z,70.50
2023-01-23T09:12:01.299Z,70.60
2023-01-23T09:14:28.258Z,70.50
2023-01-23T09:16:55.300Z,70.50
2023-01-23T09:19:22.429Z,70.50
2023-01-23T09:21:49.411Z,70.40
2023-01-23T09:24:16.962Z,69.40
2023-01-23T09:26:44.021Z,69.40
2023-01-23T09:29:11.062Z,69.30
2023-01-23T09:31:38.238Z,69.20
2023-01-23T09:34:05.518Z,69.30
2023-01-23T09:36:42.491Z,69.30
2023-01-23T09:39:10.334Z,69.30
2023-01-23T09:41:39.705Z,69.30
2023-01-23T09:44:36.472Z,69.40
2023-01-23T09:47:27.567Z,69.40
2023-01-23T09:50:00.552Z,69.30
2023-01-23T09:52:44.930Z,69.30
2023-01-23T09:55:40.398Z,69.20
2023-01-23T09:58:17.982Z,69.20
2023-01-23T10:00:46.416Z,69.10
2023-01-23T10:03:16.074Z,69.10
2023-01-23T10:06:15.224Z,69.20
2023-01-23T10:08:57.195Z,69.20
2023-01-23T10:11:55.876Z,69.30
2023-01-23T10:14:39.294Z,69.30
2023-01-23T10:17:15.384Z,69.30
2023-01-23T10:20:14.909Z,69.20
2023-01-23T10:22:51.298Z,69.00
2023-01-23T10:25:29.559Z,69.00
2023-01-23T10:28:02.410Z,69.00
2023-01-23T10:30:38.584Z,69.00
2023-01-23T10:33:17.744Z,69.00
2023-01-23T10:36:03.436Z,69.00
2023-01-23T10:38:39.536Z,69.10
2023-01-23T10:41:14.816Z,68.90
2023-01-23T10:43:43.507Z,69.00
2023-01-23T10:46:15.688Z,69.10
2023-01-23T10:48:49.637Z,69.00
2023-01-23T10:51:35.896Z,69.00
2023-01-23T10:54:30.683Z,69.10
2023-01-23T10:57:08.377Z,69.10
2023-01-23T10:59:41.360Z,69.00
2023-01-23T11:02:14.752Z,69.10
2023-01-23T11:04:46.266Z,68.90
2023-01-23T11:07:16.882Z,69.00
2023-01-23T11:09:48.562Z,69.10
2023-01-23T11:12:19.281Z,69.10
2023-01-23T11:14:46.522Z,69.10
2023-01-23T11:17:21.036Z,69.10
2023-01-23T11:19:51.819Z,69.30
2023-01-23T11:22:29.249Z,69.20
2023-01-23T11:24:56.345Z,69.10
2023-01-23T11:27:29.874Z,68.90
2023-01-23T11:30:09.151Z,69.10
2023-01-23T11:32:47.640Z,68.90
2023-01-23T11:35:25.494Z,69.10
2023-01-23T11:37:55.847Z,69.10
2023-01-23T11:40:23.398Z,69.00
2023-01-23T11:42:50.632Z,68.90
2023-01-23T11:45:53.556Z,68.90
2023-01-23T11:48:38.802Z,68.70
2023-01-23T11:51:20.534Z,68.70
2023-01-23T11:54:03.479Z,69.00
2023-01-23T11:56:44.562Z,68.90
2023-01-23T11:59:17.699Z,68.70
2023-01-23T12:02:03.926Z,68.70
2023-01-23T12:04:51.329Z,68.90
2023-01-23T12:07:25.845Z,68.80
2023-01-23T12:10:23.739Z,68.70
2023-01-23T12:13:20.249Z,68.70
2023-01-23T12:15:54.046Z,68.80
2023-01-23T12:18:33.172Z,68.60
2023-01-23T12:21:26.484Z,68.70
2023-01-23T12:24:10.118Z,68.70
2023-01-23T12:26:51.443Z,68.50
2023-01-23T12:29:33.704Z,68.50
2023-01-23T12:32:06.738Z,68.50
2023-01-23T12:34:46.081Z,68.50
2023-01-23T12:37:38.108Z,68.50
2023-01-23T12:40:13.424Z,68.50
2023-01-23T12:43:05.692Z,68.40
2023-01-23T12:45:34.144Z,68.20
2023-01-23T12:48:22.283Z,68.30
2023-01-23T12:51:02.168Z,68.30
2023-01-23T12:53:34.456Z,68.20
2023-01-23T12:56:09.273Z,68.20
2023-01-23T12:58:41.275Z,68.40
2023-01-23T13:01:18.772Z,68.30
2023-01-23T13:04:19.900Z,68.40
2023-01-23T13:06:47.498Z,68.10
2023-01-23T13:09:32.810Z,68.00
2023-01-23T13:12:09.177Z,68.00
2023-01-23T13:15:06.882Z,68.00
2023-01-23T13:17:58.264Z,68.00
2023-01-23T13:20:46.774Z,68.00
2023-01-23T13:23:31.331Z,67.90
2023-01-23T13:26:26.655Z,68.00
2023-01-23T13:29:02.469Z,68.00
2023-01-23T13:31:47.676Z,68.00
2023-01-23T13:34:18.003Z,67.90
2023-01-23T13:36:46.959Z,67.90
2023-01-23T13:39:13.895Z,68.00
2023-01-23T13:41:41.651Z,67.80
2023-01-23T13:44:27.078Z,67.70
2023-01-23T14:22:58.830Z,67.60
2023-01-23T14:25:26.531Z,67.60
2023-01-23T14:28:05.503Z,67.60
2023-01-23T14:30:32.657Z,67.80
2023-01-23T14:32:59.680Z,67.70
2023-01-23T14:35:29.779Z,67.70
2023-01-23T14:38:02.770Z,67.70
2023-01-23T14:40:39.988Z,67.60
2023-01-23T14:43:24.248Z,67.60
2023-01-23T14:46:15.238Z,67.80
2023-01-23T14:48:44.397Z,68.00
2023-01-23T14:51:23.907Z,67.80
2023-01-23T14:53:58.513Z,67.70
2023-01-23T14:56:30.955Z,67.70
2023-01-23T14:59:01.389Z,67.70
2023-01-23T15:01:29.417Z,67.80
2023-01-23T15:04:05.595Z,67.80
2023-01-23T15:06:35.607Z,67.90
2023-01-23T15:09:13.327Z,67.80
2023-01-23T15:11:40.489Z,67.60
2023-01-23T15:14:25.402Z,67.50
2023-01-23T15:17:00.322Z,67.20
2023-01-23T15:19:27.702Z,67.20
2023-01-23T15:22:18.836Z,66.90
2023-01-23T15:24:46.900Z,66.50
2023-01-23T15:27:34.436Z,66.60
2023-01-23T15:30:29.508Z,66.60
2023-01-23T15:32:58.184Z,66.40
2023-01-23T15:35:26.007Z,66.50
2023-01-23T15:37:59.904Z,66.20
2023-01-23T15:40:28.184Z,66.20
2023-01-23T15:43:11.918Z,66.00
2023-01-23T15:45:39.065Z,66.00
2023-01-23T15:48:06.509Z,65.60
2023-01-23T15:50:33.589Z,65.80
2023-01-23T15:53:00.630Z,65.70
2023-01-23T15:55:29.227Z,65.60
2023-01-23T15:57:56.695Z,65.60
2023-01-23T16:00:26.471Z,65.30
2023-01-23T16:02:57.129Z,65.60
2023-01-23T16:05:27.325Z,65.60
2023-01-23T16:07:55.689Z,65.30
2023-01-23T16:10:27.940Z,65.50
2023-01-23T16:12:57.398Z,65.50
2023-01-23T16:15:25.699Z,65.70
2023-01-23T16:17:53.241Z,65.60
2023-01-23T16:20:23.533Z,65.50
2023-01-23T16:22:54.052Z,65.60
2023-01-23T16:25:42.995Z,65.40
2023-01-23T16:28:20.600Z,65.60
2023-01-23T16:30:49.362Z,65.50
2023-01-23T16:33:16.920Z,65.40
2023-01-23T16:35:44.827Z,65.20
2023-01-23T16:38:27.189Z,65.30
2023-01-23T16:40:55.399Z,65.10
2023-01-23T16:43:23.224Z,65.00
2023-01-23T16:45:54.281Z,64.80
2023-01-23T16:48:27.230Z,64.80
2023-01-23T16:51:03.259Z,64.70
2023-01-23T16:53:33.303Z,64.80
2023-01-23T16:56:02.255Z,64.50
2023-01-23T16:58:35.054Z,64.50
2023-01-23T17:01:07.409Z,64.20
2023-01-23T17:03:37.682Z,64.10
2023-01-23T17:06:04.876Z,64.00
2023-01-23T17:08:31.928Z,64.00
2023-01-23T17:11:02.156Z,64.00
2023-01-23T17:13:34.070Z,64.20
2023-01-23T17:16:02.586Z,64.00
2023-01-23T17:18:33.481Z,64.00
2023-01-23T17:21:01.314Z,64.00
2023-01-23T17:23:28.425Z,64.00
2023-01-23T17:26:00.900Z,64.10
2023-01-23T17:28:29.128Z,64.00
2023-01-23T17:31:00.563Z,63.90
2023-01-23T17:33:31.953Z,64.00
2023-01-23T17:36:00.539Z,63.80
2023-01-23T17:38:34.505Z,63.70
2023-01-23T17:41:01.876Z,63.70
2023-01-23T17:43:29.528Z,63.60
2023-01-23T17:45:56.692Z,63.60
2023-01-23T17:48:38.878Z,63.50
2023-01-23T17:51:16.502Z,63.50
2023-01-23T17:53:43.500Z,63.70
2023-01-23T17:56:10.594Z,63.70
2023-01-23T17:58:39.016Z,63.70
2023-01-23T18:01:18.014Z,63.70
2023-01-23T18:03:45.760Z,63.70
2023-01-23T18:06:12.852Z,63.70
2023-01-23T18:08:42.237Z,63.60
2023-01-23T18:11:20.792Z,63.70
2023-01-23T18:13:59.455Z,63.70
2023-01-23T18:16:32.905Z,63.60
2023-01-23T18:19:13.486Z,63.70
2023-01-23T18:21:40.729Z,63.70
2023-01-23T18:24:18.682Z,63.60
2023-01-23T18:26:45.701Z,63.70
2023-01-23T18:29:29.535Z,63.70
2023-01-23T18:32:09.838Z,63.70
2023-01-23T18:35:04.549Z,63.80
2023-01-23T18:38:12.224Z,63.70
2023-01-23T18:40:47.456Z,63.80
2023-01-23T18:43:35.936Z,63.90
2023-01-23T18:46:03.150Z,63.80
2023-01-23T18:48:30.452Z,63.70
2023-01-23T18:51:13.216Z,63.70
2023-01-23T18:54:10.912Z,63.80
2023-01-23T18:56:57.852Z,63.70
2023-01-23T18:59:44.095Z,63.70
2023-01-23T19:02:36.831Z,63.60
2023-01-23T19:05:19.306Z,63.70
2023-01-23T19:07:48.089Z,63.50
2023-01-23T19:10:24.059Z,63.60
2023-01-23T19:13:15.054Z,63.70
2023-01-23T19:16:05.265Z,63.70
2023-01-23T19:18:44.713Z,63.70
2023-01-23T19:21:26.680Z,63.60
2023-01-23T19:24:02.391Z,63.50
2023-01-23T19:26:38.122Z,63.50
2023-01-23T19:29:20.519Z,63.40
2023-01-23T19:32:06.012Z,63.50
2023-01-23T19:34:34.568Z,63.40
2023-01-23T19:37:02.243Z,63.30
2023-01-23T19:39:29.516Z,63.20
2023-01-23T19:41:58.867Z,63.10
2023-01-23T19:44:28.859Z,63.00
2023-01-23T19:46:56.076Z,63.10
2023-01-23T19:49:23.245Z,63.10
2023-01-23T19:51:50.666Z,63.10
2023-01-23T19:54:17.804Z,63.00
2023-01-23T19:56:44.755Z,63.10
2023-01-23T19:59:11.800Z,63.10
2023-01-23T20:01:45.714Z,63.10
2023-01-23T20:04:15.976Z,63.30
2023-01-23T20:06:45.550Z,63.20
2023-01-23T20:09:17.618Z,63.20
2023-01-23T20:11:45.785Z,63.20
2023-01-23T20:14:13.016Z,63.20
2023-01-23T20:16:42.967Z,63.10
2023-01-23T20:19:17.669Z,63.30
2023-01-23T20:21:45.126Z,63.40
2023-01-23T20:24:13.446Z,63.30
2023-01-23T20:26:41.189Z,64.10
2023-01-23T20:29:08.898Z,63.50
2023-01-23T20:31:36.240Z,63.50
2023-01-23T20:34:03.549Z,63.40
2023-01-23T20:36:30.564Z,63.30
2023-01-23T20:38:57.626Z,63.30
2023-01-23T20:41:24.914Z,63.40
2023-01-23T20:43:51.942Z,63.60
2023-01-23T20:46:21.816Z,63.50
2023-01-23T20:48:48.905Z,63.40
2023-01-23T20:51:16.860Z,63.40
2023-01-23T20:53:44.480Z,63.40
2023-01-23T20:56:27.894Z,63.50
2023-01-23T20:59:15.062Z,63.60
2023-01-23T21:02:01.913Z,63.60
2023-01-23T21:04:32.332Z,63.50
2023-01-23T21:07:00.152Z,63.50
2023-01-23T21:09:27.470Z,63.40
2023-01-23T21:11:54.797Z,63.50
2023-01-23T21:14:23.091Z,63.40
2023-01-23T21:16:50.329Z,63.50
2023-01-23T21:19:17.506Z,63.40
2023-01-23T21:21:44.471Z,63.40
2023-01-23T21:24:12.699Z,63.60
2023-01-23T21:26:40.315Z,63.60
2023-01-23T21:29:07.774Z,63.50
2023-01-23T21:31:37.279Z,63.50
2023-01-23T21:34:10.088Z,63.60
2023-01-23T21:36:37.732Z,63.50
2023-01-23T21:39:06.682Z,63.50
2023-01-23T21:41:34.501Z,63.50
2023-01-23T21:44:01.455Z,63.40
2023-01-23T21:46:28.729Z,63.50
2023-01-23T21:48:55.638Z,63.60
2023-01-23T21:51:25.352Z,63.60
2023-01-23T21:53:52.340Z,63.60
2023-01-23T21:56:21.822Z,63.40
2023-01-23T21:58:49.406Z,63.40
2023-01-23T22:01:41.549Z,63.40
2023-01-23T22:04:10.333Z,63.30
2023-01-23T22:06:39.372Z,63.40
2023-01-23T22:09:07.333Z,63.30
2023-01-23T22:11:34.595Z,63.40
2023-01-23T22:14:01.684Z,63.40
2023-01-23T22:16:46.832Z,63.30
2023-01-23T22:19:17.200Z,63.30
2023-01-23T22:21:46.927Z,63.50
2023-01-23T22:24:15.129Z,63.30
2023-01-23T22:26:42.936Z,63.40
2023-01-23T22:29:12.104Z,63.40
2023-01-23T22:31:39.083Z,63.40
2023-01-23T22:34:06.106Z,63.20
2023-01-23T22:36:33.104Z,63.10
2023-01-23T22:39:00.035Z,63.00
2023-01-23T22:41:28.626Z,62.90
2023-01-23T22:43:56.852Z,63.10
2023-01-23T22:46:24.150Z,63.90
2023-01-23T22:48:51.398Z,63.20
2023-01-23T22:51:24.214Z,63.20
2023-01-23T22:53:52.424Z,63.30
2023-01-23T22:56:19.726Z,63.40
2023-01-23T22:58:48.380Z,63.40
2023-01-23T23:01:16.024Z,63.40
2023-01-23T23:03:43.545Z,63.40
2023-01-23T23:06:14.118Z,63.50
2023-01-23T23:08:41.212Z,63.40
2023-01-23T23:11:16.943Z,63.30
2023-01-23T23:13:44.028Z,63.40
2023-01-23T23:16:22.490Z,63.50
2023-01-23T23:18:52.192Z,63.50
2023-01-23T23:21:21.925Z,63.60
2023-01-23T23:23:49.051Z,63.50
2023-01-23T23:26:16.467Z,63.40
2023-01-23T23:28:43.667Z,63.50
2023-01-23T23:31:10.915Z,63.50
2023-01-23T23:33:38.232Z,63.50
2023-01-23T23:36:05.909Z,63.50
2023-01-23T23:38:32.978Z,63.50
2023-01-23T23:41:03.937Z,63.50
2023-01-23T23:43:31.735Z,63.50
2023-01-23T23:46:01.441Z,63.50
2023-01-23T23:48:29.935Z,63.50
2023-01-23T23:50:59.269Z,63.50
2023-01-23T23:53:26.200Z,63.50
2023-01-23T23:55:53.230Z,63.50
2023-01-23T23:58:20.349Z,63.40
